Time;durP1;ratioP1;P1;durP2;ratioP2;P2;SDS_P1;SDS_P2;PMS_P1;PMS_P2;Temp;Humidity;BMP_temperature;BMP_pressure;BME280_temperature;BME280_humidity;BME280_pressure;Samples;Min_cycle;Max_cycle;Signal;HPM_P1;HPM_P2
2021/05/23 00:00:25;;;;;;;1.55;1.25;;;13.50;85.00;;;;;;5094573;28;20246;-39
2021/05/23 00:02:53;;;;;;;2.95;1.13;;;13.50;85.20;;;;;;5094476;28;20285;-39
2021/05/23 00:05:23;;;;;;;1.92;1.40;;;13.50;85.40;;;;;;5094519;28;20297;-39
2021/05/23 00:07:53;;;;;;;1.98;1.50;;;13.50;86.00;;;;;;5094142;28;20275;-39
2021/05/23 00:10:24;;;;;;;3.33;1.40;;;13.40;87.10;;;;;;5094507;28;20230;-39
2021/05/23 00:12:53;;;;;;;2.97;1.88;;;13.40;87.50;;;;;;5094334;28;20246;-39
2021/05/23 00:15:24;;;;;;;3.13;1.95;;;13.30;87.80;;;;;;5094038;28;20696;-39
2021/05/23 00:17:52;;;;;;;2.10;1.50;;;13.30;88.30;;;;;;5093988;28;20313;-39
2021/05/23 00:20:20;;;;;;;2.35;1.30;;;13.30;88.70;;;;;;5094327;28;20293;-39
2021/05/23 00:22:47;;;;;;;3.67;1.48;;;13.20;89.10;;;;;;5094263;28;20284;-39
2021/05/23 00:25:17;;;;;;;5.00;1.80;;;13.20;89.30;;;;;;5093960;28;20285;-38
2021/05/23 00:27:44;;;;;;;2.30;1.42;;;13.10;89.30;;;;;;5093794;28;20205;-38
2021/05/23 00:30:14;;;;;;;1.83;1.48;;;13.10;89.50;;;;;;5094094;28;20237;-39
2021/05/23 00:32:42;;;;;;;1.83;1.35;;;13.10;89.50;;;;;;5094039;28;20615;-38
2021/05/23 00:35:11;;;;;;;2.85;1.70;;;13.10;89.80;;;;;;5093758;28;20661;-38
2021/05/23 00:37:38;;;;;;;3.25;1.42;;;13.10;90.00;;;;;;5093799;28;20318;-38
2021/05/23 00:40:07;;;;;;;3.28;1.67;;;13.10;90.10;;;;;;5093657;28;20210;-38
2021/05/23 00:42:35;;;;;;;2.50;1.17;;;13.10;90.20;;;;;;5093498;28;20234;-40
2021/05/23 00:45:03;;;;;;;1.45;1.15;;;13.10;90.30;;;;;;5093801;28;20213;-39
2021/05/23 00:47:31;;;;;;;2.22;1.33;;;13.10;90.40;;;;;;5093614;28;20664;-38
2021/05/23 00:49:59;;;;;;;3.03;1.50;;;13.10;90.50;;;;;;5093628;28;20245;-39
2021/05/23 00:52:27;;;;;;;2.80;1.35;;;13.00;90.70;;;;;;5093541;28;20610;-37
2021/05/23 00:54:55;;;;;;;3.10;1.52;;;13.00;91.00;;;;;;5093286;28;20684;-39
2021/05/23 00:57:23;;;;;;;2.17;1.25;;;12.90;91.30;;;;;;5093253;28;20231;-39
2021/05/23 00:59:50;;;;;;;3.15;1.20;;;12.90;91.70;;;;;;5093605;28;20237;-38
2021/05/23 01:02:40;;;;;;;1.92;1.40;;;12.80;92.30;;;;;;5093342;28;20206;-38
2021/05/23 01:05:10;;;;;;;2.58;1.23;;;12.70;93.20;;;;;;5093343;28;20202;-39
2021/05/23 01:07:40;;;;;;;4.07;1.33;;;12.70;93.30;;;;;;5093054;28;20740;-38
2021/05/23 01:10:10;;;;;;;2.20;1.65;;;12.70;93.70;;;;;;5093187;28;20772;-38
2021/05/23 01:13:30;;;;;;;1.83;1.50;;;12.60;94.20;;;;;;5093091;28;20264;-39
2021/05/23 01:15:58;;;;;;;6.03;1.55;;;12.60;94.90;;;;;;5093017;28;20241;-47
2021/05/23 01:18:40;;;;;;;3.80;1.80;;;12.60;94.90;;;;;;5092659;28;20246;-38
2021/05/23 01:21:09;;;;;;;1.95;1.70;;;12.60;95.10;;;;;;5092495;28;20685;-38
2021/05/23 01:23:44;;;;;;;4.88;1.38;;;12.60;95.30;;;;;;5093044;28;20214;-38
2021/05/23 01:26:14;;;;;;;6.28;1.63;;;12.60;95.50;;;;;;5093029;28;20301;-39
2021/05/23 01:28:47;;;;;;;2.22;1.42;;;12.50;95.40;;;;;;5092945;28;20207;-38
2021/05/23 01:31:18;;;;;;;3.67;1.23;;;12.50;95.40;;;;;;5092853;28;20309;-38
2021/05/23 01:33:49;;;;;;;1.50;1.40;;;12.40;95.40;;;;;;5092647;28;20218;-39
2021/05/23 01:36:17;;;;;;;2.15;1.58;;;12.40;95.50;;;;;;5092749;28;20302;-40
2021/05/23 01:38:45;;;;;;;2.17;1.70;;;12.30;95.60;;;;;;5092577;28;20276;-38
2021/05/23 01:41:14;;;;;;;1.52;1.23;;;12.30;95.60;;;;;;5092953;28;20234;-38
2021/05/23 01:43:42;;;;;;;1.45;1.35;;;12.30;95.80;;;;;;5092572;28;20253;-39
2021/05/23 01:46:10;;;;;;;1.85;1.38;;;12.30;95.90;;;;;;5092719;28;20263;-39
2021/05/23 01:48:39;;;;;;;1.35;1.23;;;12.20;96.00;;;;;;5092691;28;20293;-39
2021/05/23 01:51:07;;;;;;;3.25;1.60;;;12.10;96.10;;;;;;5092425;28;20290;-39
2021/05/23 01:53:36;;;;;;;2.17;1.42;;;12.10;96.30;;;;;;5092519;28;20302;-39
2021/05/23 01:56:04;;;;;;;2.92;1.35;;;12.10;96.50;;;;;;5092494;28;20297;-39
2021/05/23 01:58:33;;;;;;;2.55;1.17;;;12.00;97.40;;;;;;5092422;28;20225;-38
2021/05/23 02:01:01;;;;;;;1.30;1.20;;;11.80;98.40;;;;;;5092474;28;20272;-39
2021/05/23 02:03:28;;;;;;;2.15;1.15;;;11.60;99.40;;;;;;5092434;28;20202;-39
2021/05/23 02:05:57;;;;;;;5.97;1.60;;;11.50;99.90;;;;;;5092103;28;20272;-39
2021/05/23 02:08:28;;;;;;;1.85;1.20;;;11.30;99.90;;;;;;5092257;28;20259;-39
2021/05/23 02:10:58;;;;;;;1.85;1.20;;;11.30;99.90;;;;;;5092394;28;20302;-40
2021/05/23 02:13:26;;;;;;;1.33;0.85;;;11.20;99.90;;;;;;5092226;28;20619;-39
2021/05/23 02:15:55;;;;;;;2.17;1.20;;;11.10;99.90;;;;;;5092075;28;20590;-40
2021/05/23 02:18:23;;;;;;;2.30;1.63;;;11.10;99.90;;;;;;5091599;28;20249;-39
2021/05/23 02:20:51;;;;;;;1.55;1.45;;;11.00;99.90;;;;;;5091947;28;20206;-39
2021/05/23 02:23:23;;;;;;;2.53;1.73;;;10.90;99.90;;;;;;5092028;28;20645;-39
2021/05/23 02:25:51;;;;;;;1.42;1.33;;;10.90;99.90;;;;;;5091885;28;20622;-39
2021/05/23 02:28:21;;;;;;;2.53;1.38;;;10.90;99.90;;;;;;5091962;28;20207;-39
2021/05/23 02:30:50;;;;;;;3.58;1.77;;;10.90;99.90;;;;;;5091406;28;20245;-39
2021/05/23 02:33:20;;;;;;;4.15;1.63;;;10.80;99.90;;;;;;5092004;28;20237;-39
2021/05/23 02:35:49;;;;;;;2.33;1.50;;;10.80;99.90;;;;;;5092045;28;20241;-40
2021/05/23 02:38:17;;;;;;;1.90;1.58;;;10.80;99.90;;;;;;5091784;28;20714;-39
2021/05/23 02:40:46;;;;;;;3.47;1.40;;;10.80;99.90;;;;;;5092295;28;20199;-39
2021/05/23 02:43:15;;;;;;;2.38;1.90;;;10.80;99.90;;;;;;5091839;28;20206;-38
2021/05/23 02:45:43;;;;;;;2.53;2.03;;;10.70;99.90;;;;;;5092170;28;20663;-38
2021/05/23 02:48:12;;;;;;;1.15;1.05;;;10.70;99.90;;;;;;5091894;28;20199;-39
2021/05/23 02:50:43;;;;;;;1.35;1.20;;;10.60;99.90;;;;;;5092087;28;20293;-41
2021/05/23 02:53:11;;;;;;;3.20;1.75;;;10.70;99.90;;;;;;5091971;28;20237;-39
2021/05/23 02:55:41;;;;;;;1.20;1.10;;;10.60;99.90;;;;;;5091697;28;20249;-39
2021/05/23 02:58:11;;;;;;;2.80;1.20;;;10.60;99.90;;;;;;5092254;28;20314;-38
2021/05/23 03:00:39;;;;;;;1.60;1.15;;;10.60;99.90;;;;;;5091876;28;20238;-39
2021/05/23 03:03:08;;;;;;;1.77;1.40;;;10.60;99.90;;;;;;5091685;28;20665;-38
2021/05/23 03:05:35;;;;;;;3.03;1.00;;;10.50;99.90;;;;;;5091829;28;20289;-38
2021/05/23 03:08:04;;;;;;;1.65;1.10;;;10.50;99.90;;;;;;5091645;28;20665;-38
2021/05/23 03:10:34;;;;;;;1.60;1.48;;;10.50;99.90;;;;;;5092054;28;20210;-38
2021/05/23 03:13:03;;;;;;;4.10;1.23;;;10.40;99.90;;;;;;5092027;28;20210;-39
2021/05/23 03:15:34;;;;;;;3.35;1.15;;;10.50;99.90;;;;;;5092084;28;20555;-38
2021/05/23 03:18:03;;;;;;;2.58;1.02;;;10.40;99.90;;;;;;5092003;28;20673;-39
2021/05/23 03:20:34;;;;;;;3.42;1.13;;;10.40;99.90;;;;;;5091790;28;20210;-38
2021/05/23 03:23:02;;;;;;;1.13;1.02;;;10.40;99.90;;;;;;5091443;28;20207;-39
2021/05/23 03:25:30;;;;;;;1.20;0.90;;;10.40;99.90;;;;;;5091778;28;20211;-38
2021/05/23 03:27:59;;;;;;;1.85;1.13;;;10.40;99.90;;;;;;5091680;28;20302;-39
2021/05/23 03:30:31;;;;;;;3.03;0.90;;;10.30;99.90;;;;;;5091785;28;20237;-38
2021/05/23 03:32:59;;;;;;;0.80;0.70;;;10.20;99.90;;;;;;5091693;28;20234;-38
2021/05/23 03:35:27;;;;;;;1.33;0.88;;;10.20;99.90;;;;;;5091442;28;20211;-38
2021/05/23 03:37:57;;;;;;;1.27;0.90;;;10.20;99.90;;;;;;5091688;28;20210;-40
2021/05/23 03:40:25;;;;;;;0.98;0.80;;;10.20;99.90;;;;;;5091463;28;20302;-38
2021/05/23 03:42:53;;;;;;;1.45;0.98;;;10.20;99.90;;;;;;5092576;28;20232;-38
2021/05/23 03:45:23;;;;;;;1.48;0.88;;;10.20;99.90;;;;;;5094903;28;20253;-39
2021/05/23 03:47:51;;;;;;;0.75;0.60;;;10.30;99.90;;;;;;5094993;28;20309;-38
2021/05/23 03:50:21;;;;;;;0.55;0.55;;;10.20;99.90;;;;;;5095164;28;20207;-39
2021/05/23 03:52:50;;;;;;;0.70;0.70;;;10.20;99.90;;;;;;5094715;28;20202;-39
2021/05/23 03:55:18;;;;;;;0.60;0.60;;;10.20;99.90;;;;;;5094893;28;20203;-38
2021/05/23 03:57:47;;;;;;;0.85;0.65;;;10.20;99.90;;;;;;5094824;28;20211;-38
2021/05/23 04:00:17;;;;;;;0.88;0.70;;;10.10;99.90;;;;;;5094320;28;20299;-39
2021/05/23 04:02:48;;;;;;;0.80;0.77;;;10.10;99.90;;;;;;5094304;28;20696;-38
2021/05/23 04:05:16;;;;;;;0.60;0.60;;;10.10;99.90;;;;;;5094564;28;20293;-39
2021/05/23 04:07:44;;;;;;;1.02;0.77;;;10.10;99.90;;;;;;5094864;28;20202;-39
2021/05/23 04:10:15;;;;;;;0.75;0.70;;;10.10;99.90;;;;;;5094694;28;20203;-40
2021/05/23 04:12:45;;;;;;;0.95;0.80;;;10.00;99.90;;;;;;5094510;28;20297;-40
2021/05/23 04:15:15;;;;;;;1.25;0.82;;;10.00;99.90;;;;;;5094733;28;20581;-40
2021/05/23 04:17:43;;;;;;;1.02;0.70;;;10.00;99.90;;;;;;5094590;28;20626;-40
2021/05/23 04:20:13;;;;;;;0.68;0.60;;;10.00;99.90;;;;;;5094234;28;20258;-43
2021/05/23 04:22:41;;;;;;;0.73;0.73;;;10.00;99.90;;;;;;5094486;28;20210;-41
2021/05/23 04:25:12;;;;;;;0.50;0.50;;;10.00;99.90;;;;;;5094225;28;20611;-40
2021/05/23 04:27:40;;;;;;;0.73;0.70;;;10.00;99.90;;;;;;5094516;28;20246;-40
2021/05/23 04:30:10;;;;;;;1.23;0.50;;;10.00;99.90;;;;;;5094291;28;20241;-39
2021/05/23 04:32:39;;;;;;;0.60;0.60;;;10.00;99.90;;;;;;5094298;28;20529;-39
2021/05/23 04:35:08;;;;;;;0.60;0.60;;;10.00;99.90;;;;;;5094054;28;20297;-39
2021/05/23 04:37:36;;;;;;;0.60;0.60;;;10.00;99.90;;;;;;5093992;28;20746;-39
2021/05/23 04:40:04;;;;;;;0.50;0.50;;;9.90;99.90;;;;;;5093851;28;20258;-39
2021/05/23 04:42:32;;;;;;;1.17;0.60;;;10.00;99.90;;;;;;5094025;28;20618;-39
2021/05/23 04:45:20;;;;;;;0.40;0.40;;;10.00;99.90;;;;;;5094136;28;20237;-40
2021/05/23 04:47:48;;;;;;;0.85;0.68;;;10.00;99.90;;;;;;5093902;28;20284;-39
2021/05/23 04:50:16;;;;;;;0.40;0.40;;;10.00;99.90;;;;;;5093834;28;20294;-39
2021/05/23 04:52:44;;;;;;;0.50;0.50;;;10.00;99.90;;;;;;5093691;28;20252;-39
2021/05/23 04:55:12;;;;;;;0.77;0.63;;;10.00;99.90;;;;;;5093705;28;20661;-39
2021/05/23 04:57:39;;;;;;;1.02;0.70;;;10.00;99.90;;;;;;5093634;28;20571;-39
2021/05/23 05:00:09;;;;;;;1.63;0.80;;;9.90;99.90;;;;;;5093734;28;20317;-41
2021/05/23 05:02:40;;;;;;;0.57;0.57;;;10.00;99.90;;;;;;5093893;28;20289;-40
2021/05/23 05:05:10;;;;;;;0.60;0.50;;;10.00;99.90;;;;;;5093597;28;20238;-39
2021/05/23 05:07:38;;;;;;;0.60;0.52;;;10.00;99.90;;;;;;5093688;28;20300;-39
2021/05/23 05:10:06;;;;;;;1.23;0.47;;;10.00;99.90;;;;;;5093552;28;20229;-39
2021/05/23 05:12:34;;;;;;;2.20;0.50;;;10.00;99.90;;;;;;5093420;28;20265;-39
2021/05/23 05:15:01;;;;;;;0.98;0.68;;;9.90;99.90;;;;;;5093294;28;20206;-40
2021/05/23 05:17:29;;;;;;;1.10;0.57;;;9.90;99.90;;;;;;5093110;28;20242;-40
2021/05/23 05:19:57;;;;;;;0.47;0.47;;;9.90;99.90;;;;;;5093085;28;20242;-38
2021/05/23 05:22:25;;;;;;;0.57;0.50;;;9.90;99.90;;;;;;5093085;28;20688;-39
2021/05/23 05:24:53;;;;;;;0.88;0.60;;;9.90;99.90;;;;;;5093001;28;20690;-39
2021/05/23 05:27:21;;;;;;;1.05;0.63;;;9.90;99.90;;;;;;5093157;28;20210;-42
2021/05/23 05:29:48;;;;;;;0.77;0.50;;;9.90;99.90;;;;;;5092968;28;20678;-38
2021/05/23 05:32:16;;;;;;;2.28;0.50;;;9.90;99.90;;;;;;5093189;28;20577;-39
2021/05/23 05:34:43;;;;;;;1.00;0.55;;;9.90;99.90;;;;;;5093118;28;20211;-39
2021/05/23 05:37:11;;;;;;;0.57;0.52;;;9.90;99.90;;;;;;5093220;28;20203;-39
2021/05/23 05:39:39;;;;;;;0.70;0.52;;;9.90;99.90;;;;;;5092867;28;20258;-40
2021/05/23 05:42:07;;;;;;;0.98;0.60;;;10.00;99.90;;;;;;5092909;28;20318;-39
2021/05/23 05:44:34;;;;;;;0.60;0.60;;;9.90;99.90;;;;;;5092706;28;20264;-39
2021/05/23 05:47:02;;;;;;;0.52;0.50;;;9.90;99.90;;;;;;5092744;28;20452;-39
2021/05/23 05:49:29;;;;;;;0.40;0.40;;;9.90;99.90;;;;;;5092653;28;20226;-42
2021/05/23 05:51:57;;;;;;;0.75;0.60;;;9.90;99.90;;;;;;5092480;28;20218;-39
2021/05/23 05:54:24;;;;;;;0.50;0.50;;;9.90;99.90;;;;;;5092436;28;20593;-39
2021/05/23 05:56:52;;;;;;;0.60;0.60;;;9.80;99.90;;;;;;5092118;28;20234;-40
2021/05/23 05:59:40;;;;;;;1.05;0.98;;;9.80;99.90;;;;;;5092365;28;20260;-42
2021/05/23 06:02:07;;;;;;;0.73;0.73;;;9.90;99.90;;;;;;5092222;28;20241;-40
2021/05/23 06:04:35;;;;;;;0.60;0.60;;;9.90;99.90;;;;;;5092133;28;20286;-40
2021/05/23 06:07:02;;;;;;;0.50;0.50;;;10.00;99.90;;;;;;5091586;28;20618;-42
2021/05/23 06:09:30;;;;;;;0.75;0.63;;;10.00;99.90;;;;;;5092031;28;20202;-41
2021/05/23 06:11:58;;;;;;;0.52;0.50;;;10.10;99.90;;;;;;5092141;28;20225;-42
2021/05/23 06:14:25;;;;;;;0.60;0.50;;;10.10;99.90;;;;;;5092369;28;20264;-40
2021/05/23 06:16:54;;;;;;;1.50;0.57;;;10.10;99.90;;;;;;5092480;28;20297;-39
2021/05/23 06:19:21;;;;;;;0.50;0.50;;;10.20;99.90;;;;;;5091896;28;20270;-40
2021/05/23 06:21:48;;;;;;;0.60;0.60;;;10.10;99.90;;;;;;5092121;28;20669;-39
2021/05/23 06:24:17;;;;;;;0.80;0.70;;;10.10;99.90;;;;;;5091995;28;20310;-39
2021/05/23 06:26:44;;;;;;;0.63;0.63;;;10.20;99.90;;;;;;5092168;28;20258;-39
2021/05/23 06:29:12;;;;;;;1.00;0.80;;;10.30;99.90;;;;;;5091920;28;20238;-39
2021/05/23 06:31:40;;;;;;;0.70;0.70;;;10.40;99.90;;;;;;5091973;28;20241;-39
2021/05/23 06:34:07;;;;;;;0.70;0.70;;;10.40;99.90;;;;;;5091816;28;20301;-43
2021/05/23 06:36:36;;;;;;;0.93;0.68;;;10.40;99.90;;;;;;5092209;28;20268;-40
2021/05/23 06:39:05;;;;;;;0.75;0.68;;;10.40;99.90;;;;;;5091874;28;20210;-40
2021/05/23 06:41:33;;;;;;;0.70;0.70;;;10.40;99.90;;;;;;5092077;28;20206;-43
2021/05/23 06:44:00;;;;;;;3.22;0.85;;;10.40;99.90;;;;;;5091837;28;20218;-43
2021/05/23 06:46:29;;;;;;;2.92;1.90;;;10.50;99.90;;;;;;5092058;28;20211;-40
2021/05/23 06:48:56;;;;;;;2.50;1.30;;;10.60;99.90;;;;;;5091645;28;20672;-41
2021/05/23 06:51:24;;;;;;;2.08;1.23;;;10.60;99.90;;;;;;5091867;28;20265;-39
2021/05/23 06:53:51;;;;;;;1.42;0.90;;;10.60;99.90;;;;;;5092096;28;20206;-39
2021/05/23 06:56:19;;;;;;;1.20;0.93;;;10.70;99.90;;;;;;5092007;28;20245;-38
2021/05/23 06:58:46;;;;;;;1.08;0.80;;;10.70;99.90;;;;;;5092646;28;20203;-39
2021/05/23 07:01:14;;;;;;;2.17;0.70;;;10.70;99.90;;;;;;5092829;28;20230;-39
2021/05/23 07:03:43;;;;;;;2.05;0.88;;;10.80;99.90;;;;;;5092921;28;20642;-39
2021/05/23 07:06:10;;;;;;;1.48;0.93;;;10.80;99.90;;;;;;5092034;28;20217;-39
2021/05/23 07:08:38;;;;;;;1.42;1.10;;;10.90;99.90;;;;;;5091757;28;20211;-39
2021/05/23 07:11:06;;;;;;;1.00;0.90;;;11.10;99.90;;;;;;5091493;28;20662;-40
2021/05/23 07:13:33;;;;;;;1.83;1.40;;;11.20;99.90;;;;;;5091581;28;20301;-39
2021/05/23 07:16:02;;;;;;;2.03;1.30;;;11.30;99.90;;;;;;5091511;28;20232;-40
2021/05/23 07:18:29;;;;;;;1.48;1.20;;;11.40;99.90;;;;;;5093827;28;20253;-39
2021/05/23 07:20:59;;;;;;;1.33;1.23;;;11.50;99.90;;;;;;5095463;28;20226;-40
2021/05/23 07:23:28;;;;;;;1.73;1.30;;;11.50;99.90;;;;;;5095343;28;20229;-39
2021/05/23 07:25:56;;;;;;;3.25;2.10;;;11.60;99.90;;;;;;5095321;28;20686;-40
2021/05/23 07:28:23;;;;;;;3.33;2.80;;;11.60;99.90;;;;;;5095591;28;20213;-40
2021/05/23 07:30:51;;;;;;;1.95;1.75;;;11.60;99.90;;;;;;5095312;28;20242;-41
2021/05/23 07:33:18;;;;;;;2.50;2.30;;;11.70;99.90;;;;;;5095238;28;20221;-40
2021/05/23 07:35:46;;;;;;;4.15;3.70;;;11.80;99.90;;;;;;5095337;28;20301;-41
2021/05/23 07:38:15;;;;;;;3.58;2.38;;;11.90;99.90;;;;;;5095264;28;20229;-41
2021/05/23 07:40:42;;;;;;;2.22;2.03;;;11.90;99.90;;;;;;5094972;28;20267;-42
2021/05/23 07:43:10;;;;;;;1.52;1.42;;;11.90;99.90;;;;;;5095087;28;20742;-41
2021/05/23 07:45:38;;;;;;;2.08;1.73;;;11.70;99.90;;;;;;5095155;28;20311;-39
2021/05/23 07:48:05;;;;;;;2.15;1.95;;;11.50;99.90;;;;;;5094759;28;20280;-40
2021/05/23 07:50:34;;;;;;;1.85;1.70;;;11.40;99.90;;;;;;5094903;28;20230;-39
2021/05/23 07:53:02;;;;;;;2.13;1.92;;;11.30;99.90;;;;;;5094827;28;20213;-40
2021/05/23 07:55:30;;;;;;;2.25;1.73;;;11.30;99.90;;;;;;5095492;28;20257;-39
2021/05/23 07:58:02;;;;;;;2.35;1.30;;;11.20;99.90;;;;;;5095650;28;20206;-43
2021/05/23 08:00:30;;;;;;;1.80;1.40;;;11.20;99.90;;;;;;5094896;28;20238;-41
2021/05/23 08:02:58;;;;;;;1.92;1.65;;;11.20;99.90;;;;;;5094835;28;20218;-39
2021/05/23 08:05:27;;;;;;;1.30;1.20;;;11.20;99.90;;;;;;5094479;28;20256;-41
2021/05/23 08:07:55;;;;;;;3.03;2.78;;;11.20;99.90;;;;;;5094282;28;20468;-42
2021/05/23 08:10:23;;;;;;;2.47;2.28;;;11.10;99.90;;;;;;5094254;28;20700;-40
2021/05/23 08:12:51;;;;;;;2.22;1.95;;;11.10;99.90;;;;;;5094598;28;20242;-40
2021/05/23 08:15:19;;;;;;;2.95;1.65;;;11.10;99.90;;;;;;5094546;28;20250;-39
2021/05/23 08:17:46;;;;;;;1.25;1.15;;;11.20;99.90;;;;;;5094195;28;20210;-39
2021/05/23 08:20:16;;;;;;;2.60;1.25;;;11.30;99.90;;;;;;5094050;28;20223;-38
2021/05/23 08:22:43;;;;;;;2.55;1.40;;;11.40;99.90;;;;;;5094017;28;20202;-39
2021/05/23 08:25:12;;;;;;;2.72;1.27;;;11.60;99.90;;;;;;5094422;28;20222;-39
2021/05/23 08:27:39;;;;;;;0.93;0.85;;;11.70;99.90;;;;;;5094445;28;20207;-39
2021/05/23 08:30:10;;;;;;;1.10;1.00;;;11.80;99.90;;;;;;5093749;28;20679;-39
2021/05/23 08:32:38;;;;;;;1.55;1.02;;;11.90;99.90;;;;;;5094370;28;20260;-39
2021/05/23 08:35:08;;;;;;;1.35;1.00;;;12.00;99.90;;;;;;5093712;28;20654;-39
2021/05/23 08:37:36;;;;;;;1.20;1.00;;;12.00;99.90;;;;;;5093105;28;20516;-41
2021/05/23 08:40:05;;;;;;;2.85;1.20;;;12.10;99.90;;;;;;5093694;28;20233;-43
2021/05/23 08:42:33;;;;;;;2.20;0.98;;;12.20;99.90;;;;;;5094143;28;20558;-38
2021/05/23 08:45:01;;;;;;;1.35;0.70;;;12.30;99.90;;;;;;5093136;28;20218;-39
2021/05/23 08:47:32;;;;;;;1.60;1.17;;;12.20;99.90;;;;;;5093670;28;20238;-40
2021/05/23 08:50:00;;;;;;;2.95;0.98;;;12.20;99.90;;;;;;5093792;28;20606;-40
2021/05/23 08:52:29;;;;;;;1.30;1.20;;;12.30;99.90;;;;;;5093499;28;20210;-39
2021/05/23 08:54:58;;;;;;;2.38;1.10;;;12.40;99.90;;;;;;5093650;28;20203;-40
2021/05/23 08:57:28;;;;;;;1.00;0.90;;;12.40;99.90;;;;;;5093409;28;20206;-39
2021/05/23 08:59:55;;;;;;;1.35;0.82;;;12.40;99.90;;;;;;5093259;28;20314;-39
2021/05/23 09:02:25;;;;;;;2.50;0.98;;;12.40;99.90;;;;;;5093509;28;20253;-41
2021/05/23 09:04:55;;;;;;;4.38;1.35;;;12.40;99.90;;;;;;5093313;28;20217;-41
2021/05/23 09:07:23;;;;;;;1.05;0.88;;;12.30;99.90;;;;;;5093153;28;20246;-39
2021/05/23 09:09:50;;;;;;;2.53;0.60;;;12.20;99.90;;;;;;5093142;28;20653;-40
2021/05/23 09:12:19;;;;;;;1.15;0.68;;;12.00;99.90;;;;;;5093073;28;20690;-39
2021/05/23 09:14:48;;;;;;;0.57;0.55;;;11.60;99.90;;;;;;5093006;28;20264;-40
2021/05/23 09:17:21;;;;;;;1.15;0.55;;;11.30;99.90;;;;;;5093242;28;20218;-39
2021/05/23 09:19:49;;;;;;;3.33;1.77;;;11.10;99.90;;;;;;5092875;28;20733;-40
2021/05/23 09:22:20;;;;;;;1.75;1.30;;;11.00;99.90;;;;;;5093178;28;20579;-40
2021/05/23 09:24:49;;;;;;;2.53;1.42;;;11.00;99.90;;;;;;5092935;28;20246;-41
2021/05/23 09:27:17;;;;;;;2.38;1.35;;;11.10;99.90;;;;;;5092396;28;20233;-41
2021/05/23 09:29:45;;;;;;;0.68;0.50;;;11.30;99.90;;;;;;5092881;28;20206;-40
2021/05/23 09:32:17;;;;;;;0.65;0.60;;;11.70;99.90;;;;;;5092859;28;20246;-40
2021/05/23 09:34:49;;;;;;;0.60;0.60;;;12.10;99.90;;;;;;5092813;28;20206;-40
2021/05/23 09:37:18;;;;;;;1.13;0.85;;;12.30;99.90;;;;;;5092881;28;20271;-40
2021/05/23 09:39:45;;;;;;;2.45;1.30;;;12.40;99.90;;;;;;5092082;28;20306;-42
2021/05/23 09:42:14;;;;;;;2.13;1.50;;;12.50;99.90;;;;;;5092578;28;20616;-40
2021/05/23 09:44:42;;;;;;;2.45;1.40;;;12.60;99.90;;;;;;5092638;28;20255;-40
2021/05/23 09:47:12;;;;;;;1.23;0.93;;;12.60;99.90;;;;;;5092631;28;20639;-40
2021/05/23 09:49:50;;;;;;;3.00;1.50;;;12.70;99.90;;;;;;5092319;28;20207;-41
2021/05/23 09:52:30;;;;;;;3.13;1.20;;;12.80;99.90;;;;;;5092532;28;20241;-39
2021/05/23 09:54:59;;;;;;;1.30;1.05;;;12.90;99.90;;;;;;5092572;28;20607;-40
2021/05/23 09:57:28;;;;;;;2.63;1.65;;;12.90;99.90;;;;;;5092479;28;20242;-41
2021/05/23 09:59:59;;;;;;;2.15;1.30;;;13.00;99.90;;;;;;5092209;28;20708;-40
2021/05/23 10:02:27;;;;;;;2.90;1.88;;;13.20;99.90;;;;;;5092052;28;20297;-39
2021/05/23 10:05:13;;;;;;;1.10;1.00;;;13.50;99.90;;;;;;5092561;28;20283;-39
2021/05/23 10:07:41;;;;;;;1.42;0.90;;;13.80;99.90;;;;;;5092323;28;20256;-39
2021/05/23 10:10:10;;;;;;;2.30;0.90;;;13.90;99.90;;;;;;5091962;28;20214;-39
2021/05/23 10:12:38;;;;;;;1.48;0.80;;;13.90;99.90;;;;;;5092310;28;20289;-41
2021/05/23 10:15:10;;;;;;;1.80;0.90;;;13.90;99.90;;;;;;5091810;28;20249;-39
2021/05/23 10:17:54;;;;;;;2.33;1.23;;;13.90;99.90;;;;;;5091442;28;20202;-40
2021/05/23 10:20:22;;;;;;;1.52;1.08;;;14.00;99.90;;;;;;5091813;28;20227;-39
2021/05/23 10:22:51;;;;;;;0.60;0.60;;;14.20;99.90;;;;;;5091762;28;20410;-40
2021/05/23 10:25:19;;;;;;;1.98;1.00;;;14.40;99.90;;;;;;5091828;28;20305;-41
2021/05/23 10:27:48;;;;;;;1.65;0.95;;;14.80;99.90;;;;;;5091782;28;20210;-40
2021/05/23 10:30:16;;;;;;;2.03;0.85;;;15.10;99.90;;;;;;5092013;28;20301;-41
2021/05/23 10:32:44;;;;;;;3.25;1.15;;;15.50;99.40;;;;;;5091816;28;20249;-40
2021/05/23 10:35:15;;;;;;;1.77;0.70;;;15.70;98.90;;;;;;5091879;28;20260;-39
2021/05/23 10:37:44;;;;;;;1.13;0.60;;;15.80;98.10;;;;;;5091881;28;20238;-40
2021/05/23 10:40:25;;;;;;;1.20;1.10;;;16.10;97.30;;;;;;5091558;28;20290;-40
2021/05/23 10:42:54;;;;;;;2.35;1.58;;;16.10;97.10;;;;;;5092084;28;20217;-40
2021/05/23 10:45:26;;;;;;;4.40;2.88;;;15.80;97.10;;;;;;5091754;28;20206;-40
2021/05/23 10:47:57;;;;;;;2.15;1.75;;;15.50;97.70;;;;;;5091707;28;20216;-42
2021/05/23 10:50:35;;;;;;;2.03;0.77;;;15.20;97.70;;;;;;5091823;28;20249;-40
2021/05/23 10:53:03;;;;;;;2.08;1.00;;;14.80;97.20;;;;;;5095319;28;20221;-40
2021/05/23 10:55:33;;;;;;;2.10;0.65;;;14.40;97.80;;;;;;5095781;28;20684;-40
2021/05/23 10:58:01;;;;;;;2.95;0.95;;;13.90;98.80;;;;;;5096032;28;20617;-41
2021/05/23 11:00:31;;;;;;;0.70;0.63;;;13.40;99.90;;;;;;5095514;28;20217;-41
2021/05/23 11:03:11;;;;;;;1.20;0.90;;;13.10;99.90;;;;;;5095603;28;20547;-42
2021/05/23 11:05:38;;;;;;;0.75;0.75;;;13.00;99.90;;;;;;5095576;28;20240;-41
2021/05/23 11:08:07;;;;;;;1.48;1.17;;;12.90;99.90;;;;;;5095158;28;20739;-41
2021/05/23 11:10:40;;;;;;;4.43;3.85;;;12.90;99.90;;;;;;5095409;28;20298;-41
2021/05/23 11:13:10;;;;;;;1.40;0.90;;;13.00;99.90;;;;;;5095550;28;20221;-41
2021/05/23 11:15:42;;;;;;;1.85;1.05;;;13.00;99.90;;;;;;5095185;28;20633;-42
2021/05/23 11:18:13;;;;;;;1.83;0.93;;;13.10;99.90;;;;;;5095140;28;20238;-41
2021/05/23 11:20:42;;;;;;;0.82;0.82;;;13.20;99.90;;;;;;5095099;28;20234;-40
2021/05/23 11:23:09;;;;;;;2.75;1.15;;;13.40;99.90;;;;;;5095281;28;20246;-40
2021/05/23 11:25:37;;;;;;;1.33;0.93;;;13.50;99.90;;;;;;5095028;28;20213;-40
2021/05/23 11:28:08;;;;;;;0.90;0.85;;;13.60;99.50;;;;;;5094942;28;20210;-40
2021/05/23 11:30:37;;;;;;;1.90;1.80;;;13.80;98.80;;;;;;5095360;28;20260;-41
2021/05/23 11:33:08;;;;;;;1.60;0.95;;;13.80;98.80;;;;;;5095113;28;20333;-40
2021/05/23 11:35:37;;;;;;;1.10;0.65;;;14.00;99.90;;;;;;5094737;28;20213;-39
2021/05/23 11:38:06;;;;;;;2.13;1.00;;;14.00;98.50;;;;;;5095026;28;20693;-41
2021/05/23 11:40:40;;;;;;;1.20;1.08;;;14.10;98.50;;;;;;5094995;28;20608;-40
2021/05/23 11:43:14;;;;;;;1.27;0.80;;;14.30;98.40;;;;;;5095338;28;20237;-40
2021/05/23 11:45:55;;;;;;;1.48;0.90;;;14.40;98.00;;;;;;5095101;28;20252;-39
2021/05/23 11:48:33;;;;;;;0.90;0.70;;;14.70;96.70;;;;;;5095246;28;20253;-40
2021/05/23 11:51:02;;;;;;;1.17;0.73;;;14.90;96.90;;;;;;5094843;28;20218;-40
2021/05/23 11:53:41;;;;;;;2.25;0.82;;;15.00;96.50;;;;;;5094846;28;20211;-39
2021/05/23 11:56:10;;;;;;;1.58;0.60;;;15.00;96.20;;;;;;5094258;28;20259;-40
2021/05/23 11:58:38;;;;;;;2.58;1.67;;;15.00;96.40;;;;;;5094417;28;20676;-49
2021/05/23 12:01:14;;;;;;;2.00;0.85;;;15.10;96.50;;;;;;5094400;28;20258;-40
2021/05/23 12:03:41;;;;;;;2.15;1.20;;;15.00;96.50;;;;;;5093722;28;20241;-40
2021/05/23 12:06:16;;;;;;;0.80;0.77;;;14.80;96.70;;;;;;5094686;28;20242;-40
2021/05/23 12:08:44;;;;;;;6.53;4.45;;;14.60;98.60;;;;;;5094891;28;20362;-40
2021/05/23 12:11:15;;;;;;;2.58;2.22;;;14.10;99.80;;;;;;5094827;28;20285;-40
2021/05/23 12:13:45;;;;;;;2.28;0.85;;;13.60;99.90;;;;;;5095190;28;20213;-42
2021/05/23 12:16:14;;;;;;;1.48;0.90;;;13.40;99.90;;;;;;5094382;28;20333;-41
2021/05/23 12:18:43;;;;;;;1.00;0.90;;;13.30;99.90;;;;;;5094023;28;20329;-39
2021/05/23 12:21:13;;;;;;;1.15;0.98;;;13.50;99.90;;;;;;5094132;28;20602;-39
2021/05/23 12:23:43;;;;;;;0.70;0.60;;;13.70;99.90;;;;;;5094503;28;20210;-40
2021/05/23 12:26:12;;;;;;;0.75;0.70;;;13.80;99.90;;;;;;5094184;28;20242;-40
2021/05/23 12:28:43;;;;;;;2.00;1.85;;;14.00;99.90;;;;;;5094017;28;20261;-40
2021/05/23 12:31:12;;;;;;;1.10;1.00;;;14.10;99.90;;;;;;5094212;28;20198;-42
2021/05/23 12:33:48;;;;;;;0.98;0.88;;;14.30;99.90;;;;;;5094278;28;20234;-41
2021/05/23 12:36:15;;;;;;;1.50;1.25;;;14.40;99.90;;;;;;5093977;28;20241;-42
2021/05/23 12:38:56;;;;;;;2.67;1.60;;;14.50;99.90;;;;;;5094100;28;20206;-43
2021/05/23 12:41:38;;;;;;;2.20;1.77;;;14.70;99.90;;;;;;5093852;28;20230;-41
2021/05/23 12:44:18;;;;;;;3.25;1.50;;;14.90;99.90;;;;;;5094630;28;20289;-41
2021/05/23 12:46:46;;;;;;;2.28;1.17;;;15.00;99.80;;;;;;5094569;28;20328;-41
2021/05/23 12:49:15;;;;;;;1.88;0.80;;;15.10;99.30;;;;;;5094211;28;20249;-41
2021/05/23 12:51:44;;;;;;;1.45;1.05;;;15.20;98.80;;;;;;5093841;28;20290;-40
2021/05/23 12:54:23;;;;;;;1.35;0.82;;;15.30;98.70;;;;;;5093836;28;20202;-40
2021/05/23 12:56:51;;;;;;;1.17;0.75;;;15.40;98.00;;;;;;5093499;28;20207;-42
2021/05/23 12:59:20;;;;;;;2.33;1.00;;;15.50;97.80;;;;;;5093395;28;20252;-43